createdAt,value
2023-05-10T00:01:22.941Z,22.57
2023-05-10T00:03:51.261Z,17.00
2023-05-10T00:06:21.203Z,19.37
2023-05-10T00:08:49.411Z,19.23
2023-05-10T00:11:17.579Z,19.43
2023-05-10T00:13:46.041Z,18.83
2023-05-10T00:16:14.576Z,18.60
2023-05-10T00:18:42.905Z,19.33
2023-05-10T00:21:11.098Z,18.27
2023-05-10T00:23:40.608Z,18.67
2023-05-10T00:26:08.751Z,21.53
2023-05-10T00:28:36.861Z,24.10
2023-05-10T00:31:05.110Z,19.33
2023-05-10T00:33:33.305Z,21.20
2023-05-10T00:36:01.505Z,24.73
2023-05-10T00:38:29.628Z,24.80
2023-05-10T00:40:59.164Z,23.97
2023-05-10T00:43:27.339Z,22.60
2023-05-10T00:45:55.808Z,22.37
2023-05-10T00:48:24.825Z,26.13
2023-05-10T00:50:53.006Z,27.27
2023-05-10T00:53:21.464Z,34.93
2023-05-10T00:55:49.643Z,41.67
2023-05-10T00:58:19.400Z,46.90
2023-05-10T01:00:49.628Z,52.07
2023-05-10T01:03:18.191Z,53.43
2023-05-10T01:05:46.513Z,59.53
2023-05-10T01:08:14.694Z,58.50
2023-05-10T01:10:43.488Z,59.17
2023-05-10T01:13:12.124Z,64.00
2023-05-10T01:15:41.768Z,63.87
2023-05-10T01:18:11.528Z,68.77
2023-05-10T01:20:43.037Z,68.67
2023-05-10T01:23:23.094Z,71.00
2023-05-10T01:26:09.746Z,70.80
2023-05-10T01:28:49.054Z,65.30
2023-05-10T01:31:25.517Z,76.83
2023-05-10T01:33:59.878Z,67.70
2023-05-10T01:36:30.288Z,70.50
2023-05-10T01:39:01.736Z,73.97
2023-05-10T01:41:33.260Z,70.87
2023-05-10T01:44:05.530Z,71.03
2023-05-10T01:46:36.163Z,75.97
2023-05-10T01:49:07.212Z,71.60
2023-05-10T01:51:39.314Z,78.33
2023-05-10T01:54:08.375Z,76.93
2023-05-10T01:56:37.663Z,85.17
2023-05-10T01:59:08.859Z,83.43
2023-05-10T02:01:39.646Z,76.23
2023-05-10T02:04:09.867Z,76.23
2023-05-10T02:06:38.381Z,75.60
2023-05-10T02:09:07.891Z,79.83
2023-05-10T02:11:36.072Z,82.47
2023-05-10T02:14:04.384Z,79.87
2023-05-10T02:16:33.350Z,69.27
2023-05-10T02:19:02.336Z,70.07
2023-05-10T02:21:33.731Z,72.37
2023-05-10T02:24:03.433Z,57.00
2023-05-10T02:26:32.069Z,52.17
2023-05-10T02:29:00.600Z,72.50
2023-05-10T02:31:28.896Z,71.30
2023-05-10T02:33:57.901Z,70.27
2023-05-10T02:36:26.359Z,72.30
2023-05-10T02:38:55.987Z,58.83
2023-05-10T02:41:25.187Z,55.47
2023-05-10T02:43:53.847Z,56.73
2023-05-10T02:46:22.262Z,60.60
2023-05-10T02:48:50.493Z,81.63
2023-05-10T02:51:19.965Z,72.93
2023-05-10T02:53:49.334Z,69.90
2023-05-10T02:56:23.317Z,63.27
2023-05-10T02:58:51.539Z,75.33
2023-05-10T03:01:19.783Z,83.43
2023-05-10T03:03:48.035Z,81.40
2023-05-10T03:06:17.223Z,80.03
2023-05-10T03:08:45.638Z,68.30
2023-05-10T03:11:28.677Z,51.43
2023-05-10T03:14:02.315Z,46.40
2023-05-10T03:16:33.332Z,56.37
2023-05-10T03:19:04.642Z,66.90
2023-05-10T03:21:32.871Z,58.17
2023-05-10T03:24:01.885Z,56.43
2023-05-10T03:26:30.523Z,78.80
2023-05-10T03:29:00.736Z,64.33
2023-05-10T03:31:29.037Z,62.93
2023-05-10T03:33:57.251Z,71.33
2023-05-10T03:36:25.458Z,61.60
2023-05-10T03:38:53.685Z,47.93
2023-05-10T03:41:22.232Z,66.70
2023-05-10T03:43:50.495Z,66.60
2023-05-10T03:46:20.099Z,67.57
2023-05-10T03:48:48.332Z,74.63
2023-05-10T03:51:16.619Z,57.67
2023-05-10T03:53:44.754Z,47.40
2023-05-10T03:56:12.966Z,50.27
2023-05-10T03:58:41.169Z,49.60
2023-05-10T04:01:09.320Z,50.27
2023-05-10T04:03:39.219Z,56.13
2023-05-10T04:06:09.213Z,41.57
2023-05-10T04:08:37.432Z,55.20
2023-05-10T04:11:09.436Z,55.30
2023-05-10T04:13:37.699Z,55.57
2023-05-10T04:16:06.103Z,45.67
2023-05-10T04:18:34.329Z,43.20
2023-05-10T04:21:03.863Z,42.53
2023-05-10T04:23:32.020Z,33.30
2023-05-10T04:26:03.247Z,31.77
2023-05-10T04:28:31.449Z,46.63
2023-05-10T04:31:03.595Z,40.17
2023-05-10T04:33:31.938Z,35.57
2023-05-10T04:36:00.160Z,56.00
2023-05-10T04:38:29.827Z,49.63
2023-05-10T04:41:06.335Z,37.37
2023-05-10T04:43:34.569Z,33.13
2023-05-10T04:46:02.791Z,29.73
2023-05-10T04:48:30.976Z,31.33
2023-05-10T04:50:59.251Z,46.47
2023-05-10T04:53:27.619Z,33.73
2023-05-10T04:55:57.141Z,43.23
2023-05-10T04:58:25.341Z,45.57
2023-05-10T05:00:53.523Z,42.97
2023-05-10T05:03:21.790Z,37.10
2023-05-10T05:05:50.000Z,48.40
2023-05-10T05:08:18.171Z,50.57
2023-05-10T05:10:46.400Z,33.67
2023-05-10T05:13:16.485Z,43.47
2023-05-10T05:15:44.664Z,32.57
2023-05-10T05:18:12.885Z,35.63
2023-05-10T05:20:41.521Z,33.57
2023-05-10T05:23:09.710Z,38.37
2023-05-10T05:25:38.186Z,47.47
2023-05-10T05:28:06.552Z,51.80
2023-05-10T05:30:36.066Z,55.47
2023-05-10T05:33:04.278Z,53.33
2023-05-10T05:35:32.456Z,57.20
2023-05-10T05:38:00.684Z,58.30
2023-05-10T05:40:28.815Z,54.03
2023-05-10T05:42:57.017Z,54.73
2023-05-10T05:45:25.236Z,62.50
2023-05-10T05:47:54.774Z,57.33
2023-05-10T05:50:22.952Z,47.73
2023-05-10T05:52:51.116Z,55.80
2023-05-10T05:55:19.448Z,68.57
2023-05-10T05:57:47.774Z,65.17
2023-05-10T06:00:16.402Z,63.93
2023-05-10T06:02:44.653Z,85.80
2023-05-10T06:05:15.108Z,87.97
2023-05-10T06:07:43.808Z,80.83
2023-05-10T06:10:12.159Z,103.47
2023-05-10T06:12:40.322Z,126.97
2023-05-10T06:15:09.115Z,100.13
2023-05-10T06:17:37.454Z,110.77
2023-05-10T06:20:06.224Z,123.37
2023-05-10T06:22:35.697Z,95.63
2023-05-10T06:25:04.030Z,87.83
2023-05-10T06:27:32.206Z,88.73
2023-05-10T06:30:11.667Z,82.90
2023-05-10T06:32:44.810Z,78.87
2023-05-10T06:35:12.987Z,81.47
2023-05-10T06:37:42.479Z,100.97
2023-05-10T06:40:11.088Z,69.70
2023-05-10T06:42:39.250Z,82.80
2023-05-10T06:45:07.881Z,71.90
2023-05-10T06:47:38.701Z,65.23
2023-05-10T06:50:07.793Z,70.63
2023-05-10T06:52:35.968Z,91.67
2023-05-10T06:55:05.722Z,65.77
2023-05-10T06:57:34.020Z,68.60
2023-05-10T07:00:02.230Z,58.80
2023-05-10T07:02:30.766Z,53.50
2023-05-10T07:05:01.730Z,54.30
2023-05-10T07:07:31.290Z,46.43
2023-05-10T07:09:59.513Z,55.60
2023-05-10T07:12:29.031Z,51.13
2023-05-10T07:14:57.303Z,54.60
2023-05-10T07:17:25.603Z,44.80
2023-05-10T07:19:53.898Z,48.60
2023-05-10T07:22:22.020Z,48.63
2023-05-10T07:24:50.860Z,41.03
2023-05-10T07:27:19.112Z,32.23
2023-05-10T07:29:48.610Z,36.50
2023-05-10T07:32:17.116Z,27.43
2023-05-10T07:34:45.316Z,25.90
2023-05-10T07:37:13.490Z,29.77
2023-05-10T07:39:41.726Z,33.73
2023-05-10T07:42:09.856Z,28.30
2023-05-10T07:44:37.965Z,24.17
2023-05-10T07:47:07.556Z,28.97
2023-05-10T07:49:36.654Z,34.77
2023-05-10T07:52:05.907Z,33.50
2023-05-10T07:54:34.724Z,22.33
2023-05-10T07:57:03.049Z,20.40
2023-05-10T07:59:31.272Z,22.27
2023-05-10T08:01:59.440Z,22.87
2023-05-10T08:04:29.140Z,29.40
2023-05-10T08:06:57.376Z,32.93
2023-05-10T08:09:25.629Z,25.63
2023-05-10T08:11:53.806Z,22.20
2023-05-10T08:14:22.025Z,30.97
2023-05-10T08:16:50.217Z,25.73
2023-05-10T08:19:20.379Z,22.03
2023-05-10T08:21:50.024Z,18.37
2023-05-10T08:24:18.174Z,18.97
2023-05-10T08:26:46.309Z,18.13
2023-05-10T08:29:14.498Z,20.23
2023-05-10T08:31:42.751Z,37.53
2023-05-10T08:34:10.986Z,26.43
2023-05-10T08:36:39.195Z,26.90
2023-05-10T08:39:16.184Z,37.80
2023-05-10T08:41:53.756Z,31.67
2023-05-10T08:44:21.939Z,24.40
2023-05-10T08:46:52.526Z,21.47
2023-05-10T08:49:22.698Z,21.53
2023-05-10T08:51:53.050Z,18.77
2023-05-10T08:54:23.471Z,16.70
2023-05-10T08:56:51.690Z,19.17
2023-05-10T08:59:19.833Z,20.47
2023-05-10T09:01:50.380Z,16.10
2023-05-10T09:04:18.720Z,18.40
2023-05-10T09:06:47.019Z,10.67
2023-05-10T09:09:15.697Z,12.97
2023-05-10T09:11:45.229Z,15.27
2023-05-10T09:14:15.089Z,15.60
2023-05-10T09:16:43.354Z,14.30
2023-05-10T09:19:11.932Z,13.57
2023-05-10T09:21:40.186Z,14.87
2023-05-10T09:24:08.628Z,12.97
2023-05-10T09:26:37.480Z,10.60
2023-05-10T09:29:07.786Z,8.50
2023-05-10T09:31:51.823Z,8.73
2023-05-10T09:34:21.169Z,10.30
2023-05-10T09:36:53.333Z,14.90
2023-05-10T09:39:21.646Z,9.20
2023-05-10T09:41:50.384Z,9.20
2023-05-10T09:44:22.732Z,10.70
2023-05-10T09:46:53.743Z,10.37
2023-05-10T09:49:22.024Z,9.97
2023-05-10T09:51:50.470Z,11.33
2023-05-10T09:54:19.077Z,10.77
2023-05-10T09:56:47.269Z,14.00
2023-05-10T09:59:15.546Z,12.40
2023-05-10T10:01:51.925Z,12.03
2023-05-10T10:04:20.444Z,11.83
2023-05-10T10:06:48.614Z,14.30
2023-05-10T10:09:18.428Z,17.00
2023-05-10T10:11:46.823Z,14.93
2023-05-10T10:14:15.355Z,14.53
2023-05-10T10:16:55.659Z,14.40
2023-05-10T10:19:33.253Z,15.30
2023-05-10T10:22:01.467Z,13.70
2023-05-10T10:24:29.735Z,15.47
2023-05-10T10:27:00.005Z,15.70
2023-05-10T10:29:30.987Z,20.77
2023-05-10T10:32:06.598Z,21.70
2023-05-10T10:34:34.836Z,17.57
2023-05-10T10:37:06.817Z,21.67
2023-05-10T10:39:37.600Z,23.37
2023-05-10T10:42:06.982Z,22.67
2023-05-10T10:44:42.604Z,19.83
2023-05-10T10:47:14.936Z,19.30
2023-05-10T10:49:47.141Z,22.77
2023-05-10T10:52:15.707Z,18.97
2023-05-10T10:54:43.920Z,24.57
2023-05-10T10:57:15.300Z,27.23
2023-05-10T10:59:47.295Z,30.27
2023-05-10T11:02:31.325Z,30.57
2023-05-10T11:05:01.790Z,28.20
2023-05-10T11:07:30.007Z,30.13
2023-05-10T11:09:58.231Z,35.03
2023-05-10T11:12:26.440Z,29.27
2023-05-10T11:14:54.640Z,24.77
2023-05-10T11:17:26.838Z,23.23
2023-05-10T11:20:11.867Z,25.27
2023-05-10T11:22:52.817Z,20.57
2023-05-10T11:25:21.317Z,16.27
2023-05-10T11:27:50.726Z,13.77
2023-05-10T11:30:19.318Z,30.23
2023-05-10T11:32:47.807Z,16.43
2023-05-10T11:35:17.445Z,14.37
2023-05-10T11:37:46.155Z,19.00
2023-05-10T11:40:15.725Z,17.87
2023-05-10T11:42:44.111Z,13.87
2023-05-10T11:45:12.807Z,15.43
2023-05-10T11:47:43.383Z,9.37
2023-05-10T11:50:12.079Z,9.33
2023-05-10T11:52:41.657Z,10.90
2023-05-10T11:55:10.064Z,10.30
2023-05-10T11:57:39.378Z,8.27
2023-05-10T12:00:08.472Z,8.40
2023-05-10T12:02:36.676Z,8.27
2023-05-10T12:05:06.131Z,10.17
2023-05-10T12:07:34.492Z,8.20
2023-05-10T12:10:11.006Z,7.03
2023-05-10T12:12:43.790Z,7.87
2023-05-10T12:15:19.817Z,8.23
2023-05-10T12:17:48.224Z,8.77
2023-05-10T12:20:17.285Z,8.37
2023-05-10T12:22:49.743Z,9.93
2023-05-10T12:25:19.448Z,9.27
2023-05-10T12:27:51.560Z,7.87
2023-05-10T12:30:23.596Z,8.20
2023-05-10T12:32:52.214Z,8.17
2023-05-10T12:35:22.789Z,9.47
2023-05-10T12:37:51.057Z,10.93
2023-05-10T12:40:21.079Z,11.73
2023-05-10T12:42:49.799Z,8.43
2023-05-10T12:45:20.096Z,7.90
2023-05-10T12:47:48.308Z,6.57
2023-05-10T12:50:16.686Z,6.43
2023-05-10T12:52:45.073Z,6.80
2023-05-10T12:55:13.227Z,8.03
2023-05-10T12:57:42.680Z,9.10
2023-05-10T13:00:11.559Z,7.80
2023-05-10T13:02:39.838Z,7.03
2023-05-10T13:05:08.859Z,5.23
2023-05-10T13:07:38.260Z,5.90
2023-05-10T13:10:06.766Z,6.00
2023-05-10T13:12:35.103Z,6.23
2023-05-10T13:15:04.695Z,6.30
2023-05-10T13:17:34.172Z,5.50
2023-05-10T13:20:02.432Z,5.40
2023-05-10T13:22:39.652Z,4.90
2023-05-10T13:25:08.850Z,5.13
2023-05-10T13:27:36.959Z,4.90
2023-05-10T13:30:07.116Z,5.00
2023-05-10T13:32:35.886Z,4.90
2023-05-10T13:35:05.401Z,4.20
2023-05-10T13:37:36.409Z,4.33
2023-05-10T13:40:05.065Z,4.37
2023-05-10T13:42:34.481Z,4.73
2023-05-10T13:45:02.993Z,4.70
2023-05-10T13:47:32.553Z,5.57
2023-05-10T13:50:00.658Z,5.10
2023-05-10T13:52:28.866Z,5.77
2023-05-10T13:54:57.279Z,5.93
2023-05-10T13:57:25.581Z,6.60
2023-05-10T13:59:55.891Z,6.50
2023-05-10T14:02:27.017Z,6.43
2023-05-10T14:04:56.637Z,5.63
2023-05-10T14:07:24.797Z,5.80
2023-05-10T14:09:52.973Z,5.47
2023-05-10T14:12:21.176Z,4.90
2023-05-10T14:14:49.351Z,5.23
2023-05-10T14:17:17.579Z,5.60
2023-05-10T14:19:45.741Z,5.67
2023-05-10T14:22:15.354Z,5.67
2023-05-10T14:24:44.985Z,5.63
2023-05-10T14:27:13.293Z,6.03
2023-05-10T14:29:41.514Z,4.90
2023-05-10T14:32:09.670Z,4.70
2023-05-10T14:34:37.843Z,5.03
2023-05-10T14:37:06.202Z,4.40
2023-05-10T14:39:36.044Z,4.30
2023-05-10T14:42:04.760Z,4.10
2023-05-10T14:44:32.932Z,3.80
2023-05-10T14:47:01.044Z,4.00
2023-05-10T14:49:29.158Z,4.27
2023-05-10T14:51:57.544Z,3.60
2023-05-10T14:54:25.752Z,3.70
2023-05-10T14:56:55.428Z,3.40
2023-05-10T14:59:23.676Z,2.80
2023-05-10T15:01:52.570Z,2.40
2023-05-10T15:04:22.448Z,2.90
2023-05-10T15:06:51.183Z,2.70
2023-05-10T15:09:19.307Z,3.60
2023-05-10T15:11:47.460Z,3.60
2023-05-10T15:14:16.916Z,3.03
2023-05-10T15:16:45.062Z,2.83
2023-05-10T15:19:13.188Z,3.10
2023-05-10T15:21:43.380Z,3.60
2023-05-10T15:24:11.631Z,3.73
2023-05-10T15:26:39.795Z,3.83
2023-05-10T15:29:07.917Z,3.43
2023-05-10T15:31:37.606Z,3.70
2023-05-10T15:34:05.941Z,3.73
2023-05-10T15:36:34.340Z,4.50
2023-05-10T15:39:02.474Z,4.17
2023-05-10T15:41:30.959Z,3.90
2023-05-10T15:44:00.600Z,3.60
2023-05-10T15:46:28.969Z,3.93
2023-05-10T15:48:59.266Z,4.37
2023-05-10T15:51:27.448Z,3.60
2023-05-10T15:54:06.608Z,3.80
2023-05-10T15:56:35.646Z,3.90
2023-05-10T15:59:05.883Z,3.80
2023-05-10T16:01:34.279Z,3.70
2023-05-10T16:04:03.939Z,4.27
2023-05-10T16:06:32.565Z,4.53
2023-05-10T16:09:00.753Z,5.83
2023-05-10T16:11:29.037Z,5.37
2023-05-10T16:13:57.257Z,5.30
2023-05-10T16:16:25.500Z,5.97
2023-05-10T16:18:53.795Z,6.27
2023-05-10T16:21:23.334Z,6.17
2023-05-10T16:23:51.551Z,6.30
2023-05-10T16:26:19.688Z,6.43
2023-05-10T16:28:48.547Z,5.90
2023-05-10T16:31:18.272Z,7.17
2023-05-10T16:33:46.600Z,6.90
2023-05-10T16:36:14.799Z,7.07
2023-05-10T16:38:44.347Z,6.43
2023-05-10T16:41:12.718Z,7.07
2023-05-10T16:43:40.889Z,7.10
2023-05-10T16:46:11.902Z,6.77
2023-05-10T16:48:40.106Z,6.77
2023-05-10T16:51:08.272Z,7.33
2023-05-10T16:53:36.636Z,6.57
2023-05-10T16:56:06.361Z,7.17
2023-05-10T16:58:34.509Z,7.00
2023-05-10T17:01:02.947Z,6.50
2023-05-10T17:03:31.277Z,6.20
2023-05-10T17:05:59.908Z,7.00
2023-05-10T17:08:28.171Z,7.40
2023-05-10T17:10:56.336Z,6.90
2023-05-10T17:13:26.154Z,7.27
2023-05-10T17:15:54.408Z,6.87
2023-05-10T17:18:22.722Z,6.87
2023-05-10T17:20:50.989Z,7.90
2023-05-10T17:23:19.316Z,8.00
2023-05-10T17:25:47.519Z,6.30
2023-05-10T17:28:15.682Z,6.73
2023-05-10T17:30:45.218Z,7.30
2023-05-10T17:33:13.361Z,7.03
2023-05-10T17:35:41.482Z,6.93
2023-05-10T17:38:09.643Z,6.57
2023-05-10T17:40:37.779Z,6.67
2023-05-10T17:43:05.914Z,7.00
2023-05-10T17:45:34.213Z,6.50
2023-05-10T17:48:04.127Z,5.90
2023-05-10T17:50:33.041Z,5.60
2023-05-10T17:53:01.213Z,5.47
2023-05-10T17:55:30.773Z,5.90
2023-05-10T17:58:00.014Z,5.20
2023-05-10T18:00:28.219Z,4.57
2023-05-10T18:02:56.491Z,5.33
2023-05-10T18:05:26.123Z,4.23
2023-05-10T18:07:54.330Z,3.90
2023-05-10T18:10:22.797Z,3.73
2023-05-10T18:12:52.445Z,3.93
2023-05-10T18:15:20.595Z,3.73
2023-05-10T18:17:48.749Z,4.00
2023-05-10T18:20:16.946Z,4.10
2023-05-10T18:22:46.455Z,3.90
2023-05-10T18:25:14.871Z,3.20
2023-05-10T18:27:43.322Z,3.43
2023-05-10T18:30:12.418Z,3.70
2023-05-10T18:32:40.786Z,3.60
2023-05-10T18:35:09.679Z,3.00
2023-05-10T18:37:38.592Z,3.40
2023-05-10T18:40:09.550Z,3.90
2023-05-10T18:42:37.752Z,4.70
2023-05-10T18:45:06.683Z,5.33
2023-05-10T18:47:34.893Z,5.20
2023-05-10T18:50:04.984Z,3.20
2023-05-10T18:52:33.203Z,3.47
2023-05-10T18:55:01.349Z,3.40
2023-05-10T18:57:31.041Z,2.77
2023-05-10T18:59:59.302Z,2.70
2023-05-10T19:02:27.571Z,3.17
2023-05-10T19:04:58.762Z,3.47
2023-05-10T19:07:27.010Z,3.17
2023-05-10T19:09:55.386Z,3.60
2023-05-10T19:12:23.522Z,3.83
2023-05-10T19:14:53.104Z,3.77
2023-05-10T19:17:21.334Z,3.70
2023-05-10T19:19:50.711Z,4.03
2023-05-10T19:22:31.930Z,4.10
2023-05-10T19:25:09.998Z,3.70
2023-05-10T19:27:38.106Z,3.10
2023-05-10T19:30:08.786Z,2.80
2023-05-10T19:32:37.085Z,3.30
2023-05-10T19:35:05.677Z,2.60
2023-05-10T19:37:34.023Z,3.13
2023-05-10T19:40:02.150Z,2.83
2023-05-10T19:42:30.323Z,3.13
2023-05-10T19:44:59.257Z,4.00
2023-05-10T19:47:28.849Z,3.60
2023-05-10T19:49:57.091Z,2.80
2023-05-10T19:52:25.289Z,2.97
2023-05-10T19:54:53.434Z,3.00
2023-05-10T19:57:21.803Z,3.00
2023-05-10T19:59:49.949Z,3.10
2023-05-10T20:02:18.204Z,3.17
2023-05-10T20:04:47.710Z,3.23
2023-05-10T20:07:15.881Z,3.10
2023-05-10T20:09:44.439Z,3.37
2023-05-10T20:12:12.625Z,3.10
2023-05-10T20:14:40.766Z,3.40
2023-05-10T20:17:09.058Z,3.23
2023-05-10T20:19:37.285Z,3.90
2023-05-10T20:22:09.212Z,3.77
2023-05-10T20:24:37.436Z,3.87
2023-05-10T20:27:05.650Z,4.07
2023-05-10T20:29:33.895Z,3.20
2023-05-10T20:32:02.110Z,3.57
2023-05-10T20:34:30.902Z,3.60
2023-05-10T20:36:59.057Z,3.83
2023-05-10T20:39:29.012Z,3.67
2023-05-10T20:41:57.181Z,5.87
2023-05-10T20:44:25.331Z,15.03
2023-05-10T20:46:53.521Z,25.60
2023-05-10T20:49:21.837Z,45.00
2023-05-10T20:51:50.048Z,90.50
2023-05-10T20:54:18.226Z,24.30
2023-05-10T20:56:47.762Z,6.37
2023-05-10T20:59:15.912Z,4.13
2023-05-10T21:01:44.193Z,3.93
2023-05-10T21:04:12.374Z,3.70
2023-05-10T21:06:40.581Z,3.60
2023-05-10T21:09:08.781Z,3.50
2023-05-10T21:11:38.284Z,3.80
2023-05-10T21:14:07.831Z,4.20
2023-05-10T21:16:36.220Z,3.97
2023-05-10T21:19:04.697Z,4.00
2023-05-10T21:21:33.040Z,4.17
2023-05-10T21:24:01.193Z,3.93
2023-05-10T21:26:29.568Z,4.43
2023-05-10T21:28:58.853Z,4.40
2023-05-10T21:31:28.625Z,4.30
2023-05-10T21:33:56.893Z,4.60
2023-05-10T21:36:25.089Z,4.50
2023-05-10T21:38:53.473Z,4.87
2023-05-10T21:41:21.679Z,5.30
2023-05-10T21:43:49.888Z,5.03
2023-05-10T21:46:18.164Z,5.17
2023-05-10T21:48:47.880Z,5.60
2023-05-10T21:51:16.053Z,5.50
2023-05-10T21:53:44.232Z,5.73
2023-05-10T21:56:12.527Z,5.90
2023-05-10T21:58:40.804Z,5.77
2023-05-10T22:01:09.095Z,5.97
2023-05-10T22:03:37.382Z,6.73
2023-05-10T22:06:08.389Z,7.00
2023-05-10T22:08:36.646Z,7.40
2023-05-10T22:11:04.786Z,7.20
2023-05-10T22:13:32.919Z,7.47
2023-05-10T22:16:01.195Z,7.37
2023-05-10T22:18:29.488Z,7.50
2023-05-10T22:20:57.654Z,8.03
2023-05-10T22:23:27.209Z,7.00
2023-05-10T22:25:55.393Z,6.47
2023-05-10T22:28:23.508Z,6.97
2023-05-10T22:30:51.724Z,7.83
2023-05-10T22:33:19.952Z,9.00
2023-05-10T22:35:48.141Z,8.77
2023-05-10T22:38:16.305Z,9.27
2023-05-10T22:40:45.815Z,9.10
2023-05-10T22:43:13.970Z,8.90
2023-05-10T22:45:42.201Z,8.97
2023-05-10T22:48:10.513Z,9.47
2023-05-10T22:50:38.716Z,9.70
2023-05-10T22:53:07.281Z,9.57
2023-05-10T22:55:36.505Z,9.03
2023-05-10T22:58:06.156Z,9.77
2023-05-10T23:00:34.405Z,10.53
2023-05-10T23:03:02.721Z,10.47
2023-05-10T23:05:30.910Z,10.40
2023-05-10T23:07:59.156Z,10.70
2023-05-10T23:10:27.284Z,10.13
2023-05-10T23:12:55.698Z,10.10
2023-05-10T23:15:25.606Z,10.80
2023-05-10T23:17:53.789Z,10.20
2023-05-10T23:20:22.175Z,9.60
2023-05-10T23:22:50.402Z,9.73
2023-05-10T23:25:18.641Z,10.73
2023-05-10T23:27:46.787Z,10.93
2023-05-10T23:30:15.189Z,10.73
2023-05-10T23:32:44.761Z,11.20
2023-05-10T23:35:12.906Z,10.80
2023-05-10T23:37:41.934Z,10.80
2023-05-10T23:40:10.535Z,11.43
2023-05-10T23:42:38.776Z,11.47
2023-05-10T23:45:07.351Z,12.37
2023-05-10T23:47:35.699Z,12.00
2023-05-10T23:50:05.934Z,11.70
2023-05-10T23:52:34.148Z,12.10
2023-05-10T23:55:02.387Z,12.13
2023-05-10T23:57:30.609Z,11.87
2023-05-10T23:59:58.791Z,11.57
